createdAt,value
2023-04-07T00:04:28.732Z,61631.38
2023-04-07T00:09:32.831Z,61670.69
2023-04-07T00:14:35.481Z,61687.28
2023-04-07T00:19:38.023Z,61646.41
2023-04-07T00:24:41.924Z,61673.88
2023-04-07T00:29:46.517Z,61656.22
2023-04-07T00:34:49.099Z,61682.03
2023-04-07T00:39:53.320Z,61647.25
2023-04-07T00:44:56.071Z,61664.31
2023-04-07T00:49:58.720Z,61703.22
2023-04-07T00:55:02.655Z,61719.88
2023-04-07T01:00:06.731Z,61701.75
2023-04-07T01:05:16.430Z,61715.91
2023-04-07T01:10:28.235Z,61700.84
2023-04-07T01:15:34.454Z,61691.53
2023-04-07T01:20:38.263Z,61744.38
2023-04-07T01:26:05.295Z,61706.00
2023-04-07T01:31:10.354Z,61737.16
2023-04-07T01:36:14.050Z,61718.63
2023-04-07T01:41:18.094Z,61725.78
2023-04-07T01:46:22.841Z,61728.50
2023-04-07T01:51:27.358Z,61751.81
2023-04-07T01:56:29.958Z,61731.09
2023-04-07T02:01:34.029Z,61775.19
2023-04-07T02:06:43.148Z,61779.97
2023-04-07T02:11:47.307Z,61798.56
2023-04-07T02:16:52.767Z,61772.72
2023-04-07T02:21:56.205Z,61788.84
2023-04-07T02:27:00.844Z,61793.50
2023-04-07T02:32:04.914Z,61777.44
2023-04-07T02:37:07.591Z,61819.94
2023-04-07T02:42:10.201Z,61820.50
2023-04-07T02:47:14.169Z,61816.97
2023-04-07T02:52:17.237Z,61835.63
2023-04-07T02:57:20.025Z,61843.47
2023-04-07T03:02:23.940Z,61864.84
2023-04-07T03:07:26.699Z,61842.13
2023-04-07T03:12:29.288Z,61865.50
2023-04-07T03:17:33.523Z,61882.66
2023-04-07T03:22:36.112Z,61888.91
2023-04-07T03:27:38.707Z,61892.50
2023-04-07T03:32:42.666Z,61910.69
2023-04-07T03:37:46.291Z,61933.56
2023-04-07T03:42:49.380Z,61951.16
2023-04-07T03:47:54.359Z,61917.94
2023-04-07T03:52:57.061Z,61993.63
2023-04-07T03:57:59.791Z,62005.59
2023-04-07T04:03:04.137Z,62042.56
2023-04-07T04:08:07.640Z,62081.53
2023-04-07T04:13:10.372Z,62088.84
2023-04-07T04:18:14.355Z,62113.78
2023-04-07T04:23:17.023Z,62170.81
2023-04-07T04:28:19.553Z,62155.31
2023-04-07T04:33:23.427Z,62210.28
2023-04-07T04:38:26.007Z,62223.88
2023-04-07T04:43:28.564Z,62231.66
2023-04-07T04:48:32.497Z,62271.06
2023-04-07T04:53:35.007Z,62247.91
2023-04-07T04:58:40.343Z,62219.75
2023-04-07T05:03:44.438Z,62198.47
2023-04-07T05:08:47.071Z,62243.63
2023-04-07T05:13:49.755Z,62224.47
2023-04-07T05:18:53.927Z,62215.72
2023-04-07T05:23:56.604Z,62240.56
2023-04-07T05:28:59.113Z,62287.88
2023-04-07T05:34:03.044Z,62291.09
2023-04-07T05:39:05.897Z,62254.16
2023-04-07T05:44:08.529Z,62279.00
2023-04-07T05:49:19.703Z,62313.97
2023-04-07T05:54:22.864Z,62285.44
2023-04-07T05:59:25.498Z,62280.88
2023-04-07T06:04:29.398Z,62280.78
2023-04-07T06:09:31.998Z,62250.75
2023-04-07T06:14:34.583Z,62269.50
2023-04-07T06:19:38.554Z,62277.44
2023-04-07T06:24:41.147Z,62284.84
2023-04-07T06:29:43.737Z,62258.97
2023-04-07T06:34:47.740Z,62279.38
2023-04-07T06:39:50.718Z,62298.31
2023-04-07T06:44:53.262Z,62282.81
2023-04-07T06:49:57.190Z,62231.44
2023-04-07T06:54:59.747Z,62194.66
2023-04-07T07:00:02.274Z,62181.16
2023-04-07T07:05:08.285Z,62166.91
2023-04-07T07:10:11.449Z,62154.75
2023-04-07T07:15:13.981Z,62105.09
2023-04-07T07:20:18.186Z,62078.22
2023-04-07T07:25:20.760Z,62097.81
2023-04-07T07:30:24.757Z,62049.59
2023-04-07T07:35:28.673Z,62066.44
2023-04-07T07:40:31.334Z,62013.25
2023-04-07T07:45:34.921Z,61995.66
2023-04-07T07:50:38.888Z,61963.50
2023-04-07T07:55:41.752Z,61969.69
2023-04-07T08:00:44.367Z,61913.66
2023-04-07T08:05:49.969Z,61929.63
2023-04-07T08:10:52.590Z,61932.16
2023-04-07T08:15:55.335Z,61940.44
2023-04-07T08:20:59.269Z,61911.84
2023-04-07T08:26:01.894Z,61904.16
2023-04-07T08:31:04.490Z,61918.09
2023-04-07T08:36:08.714Z,61887.94
2023-04-07T08:41:13.949Z,61909.38
2023-04-07T08:46:17.165Z,61942.25
2023-04-07T08:51:28.782Z,61944.78
2023-04-07T08:56:33.441Z,61938.53
2023-04-07T09:01:37.100Z,61956.19
2023-04-07T09:06:41.114Z,61920.81
2023-04-07T09:11:43.777Z,61897.59
2023-04-07T09:16:47.931Z,61924.84
2023-04-07T09:21:53.323Z,61917.91
2023-04-07T09:27:12.740Z,61895.66
2023-04-07T09:32:38.661Z,61911.31
2023-04-07T09:37:44.589Z,61911.59
2023-04-07T09:42:48.301Z,61939.56
2023-04-07T09:47:51.932Z,61959.75
2023-04-07T09:52:55.951Z,61976.56
2023-04-07T09:57:59.428Z,61995.81
2023-04-07T10:03:03.630Z,62121.59
2023-04-07T10:08:08.442Z,62101.53
2023-04-07T10:13:11.722Z,62155.28
2023-04-07T10:18:15.009Z,62192.13
2023-04-07T10:23:23.278Z,62216.75
2023-04-07T10:28:28.480Z,62255.81
2023-04-07T10:33:48.349Z,62157.28
2023-04-07T10:39:24.174Z,62087.44
2023-04-07T10:44:58.396Z,62065.00
2023-04-07T10:50:18.063Z,62032.03
2023-04-07T10:55:36.699Z,62011.47
2023-04-07T11:00:39.424Z,61954.31
2023-04-07T11:05:42.548Z,61963.81
2023-04-07T11:10:49.885Z,61967.34
2023-04-07T11:15:52.574Z,61937.84
2023-04-07T11:20:58.385Z,61991.81
2023-04-07T11:26:03.467Z,62029.03
2023-04-07T11:31:06.299Z,62041.81
2023-04-07T11:36:09.121Z,62081.16
2023-04-07T11:41:14.870Z,62100.84
2023-04-07T11:46:19.264Z,62115.09
2023-04-07T11:51:24.716Z,62056.59
2023-04-07T11:56:30.423Z,62071.59
2023-04-07T12:01:41.507Z,62064.16
2023-04-07T12:06:45.492Z,62126.56
2023-04-07T12:11:51.620Z,62064.25
2023-04-07T12:16:56.424Z,62095.84
2023-04-07T12:21:59.166Z,62097.13
2023-04-07T12:27:03.533Z,62133.63
2023-04-07T12:32:06.212Z,62147.06
2023-04-07T12:37:08.806Z,62100.94
2023-04-07T12:42:12.749Z,62139.81
2023-04-07T12:47:15.958Z,62156.06
2023-04-07T12:52:18.561Z,62140.16
2023-04-07T12:57:22.634Z,62158.94
2023-04-07T13:02:25.726Z,62181.88
2023-04-07T13:07:28.341Z,62153.00
2023-04-07T13:12:33.334Z,62122.91
2023-04-07T13:17:38.514Z,62125.81
2023-04-07T13:22:49.239Z,62144.47
2023-04-07T13:27:55.952Z,62114.03
2023-04-07T13:32:58.797Z,62092.41
2023-04-07T13:38:01.520Z,62079.69
2023-04-07T13:43:06.423Z,62071.38
2023-04-07T13:48:09.060Z,62074.03
2023-04-07T13:53:11.731Z,62088.25
2023-04-07T13:58:15.619Z,62073.16
2023-04-07T14:03:18.298Z,62081.56
2023-04-07T14:08:23.618Z,62080.50
2023-04-07T14:13:27.628Z,62107.13
2023-04-07T14:18:30.176Z,62074.75
2023-04-07T14:23:37.175Z,62061.38
2023-04-07T14:28:42.190Z,62060.38
2023-04-07T14:33:45.027Z,62064.97
2023-04-07T14:38:47.603Z,62074.69
2023-04-07T14:43:56.117Z,62099.53
2023-04-07T14:48:59.172Z,62076.53
2023-04-07T14:54:02.336Z,62101.81
2023-04-07T14:59:06.184Z,62133.66
2023-04-07T15:04:08.860Z,62086.81
2023-04-07T15:09:11.420Z,62098.03
2023-04-07T15:14:15.854Z,62103.53
2023-04-07T15:19:18.539Z,62102.41
2023-04-07T15:24:22.209Z,62087.97
2023-04-07T15:29:27.429Z,62079.25
2023-04-07T15:34:29.959Z,62095.13
2023-04-07T15:39:32.670Z,62092.19
2023-04-07T15:44:39.552Z,62042.03
2023-04-07T15:49:42.324Z,62063.78
2023-04-07T15:54:45.039Z,62078.41
2023-04-07T15:59:49.009Z,62063.41
2023-04-07T16:04:52.325Z,62046.28
2023-04-07T16:09:55.982Z,62062.88
2023-04-07T16:14:59.925Z,62077.03
2023-04-07T16:20:03.690Z,62086.44
2023-04-07T16:25:07.479Z,62069.31
2023-04-07T16:30:13.640Z,62068.94
2023-04-07T16:35:16.652Z,62033.69
2023-04-07T16:40:19.195Z,62031.97
2023-04-07T16:45:23.144Z,62029.56
2023-04-07T16:50:25.707Z,61982.31
2023-04-07T16:55:28.295Z,62000.22
2023-04-07T17:00:32.412Z,62006.38
2023-04-07T17:05:34.998Z,61995.22
2023-04-07T17:10:37.558Z,61976.31
2023-04-07T17:15:41.500Z,61986.47
2023-04-07T17:20:44.148Z,61993.63
2023-04-07T17:25:46.823Z,61965.34
2023-04-07T17:30:50.793Z,61921.94
2023-04-07T17:35:53.402Z,61935.28
2023-04-07T17:40:58.383Z,61930.38
2023-04-07T17:46:03.715Z,61924.41
2023-04-07T17:51:06.467Z,61901.25
2023-04-07T17:56:09.178Z,61918.28
2023-04-07T18:01:13.117Z,61864.13
2023-04-07T18:06:16.911Z,61883.75
2023-04-07T18:11:19.575Z,61859.53
2023-04-07T18:16:23.553Z,61865.56
2023-04-07T18:21:26.141Z,61815.97
2023-04-07T18:26:28.770Z,61871.88
2023-04-07T18:31:33.612Z,61858.19
2023-04-07T18:36:36.681Z,61790.50
2023-04-07T18:41:41.803Z,61810.56
2023-04-07T18:46:46.112Z,61800.63
2023-04-07T18:51:48.899Z,61804.69
2023-04-07T18:56:52.459Z,61814.47
2023-04-07T19:01:56.681Z,61778.56
2023-04-07T19:06:59.413Z,61809.47
2023-04-07T19:12:01.985Z,61793.53
2023-04-07T19:17:06.125Z,61785.00
2023-04-07T19:22:09.107Z,61718.75
2023-04-07T19:27:12.693Z,61710.97
2023-04-07T19:32:17.505Z,61694.94
2023-04-07T19:37:20.960Z,61728.19
2023-04-07T19:42:25.782Z,61692.38
2023-04-07T19:47:31.176Z,61695.06
2023-04-07T19:52:33.794Z,61655.69
2023-04-07T19:57:37.039Z,61637.50
2023-04-07T20:02:41.004Z,61607.56
2023-04-07T20:07:44.224Z,61596.63
2023-04-07T20:12:47.767Z,61550.66
2023-04-07T20:17:51.861Z,61567.31
2023-04-07T20:22:54.526Z,61548.72
2023-04-07T20:27:57.090Z,61524.16
2023-04-07T20:33:02.057Z,61522.16
2023-04-07T20:38:04.772Z,61538.31
2023-04-07T20:43:07.431Z,61534.53
2023-04-07T20:48:11.393Z,61469.38
2023-04-07T20:53:13.969Z,61487.75
2023-04-07T20:58:17.621Z,61486.81
2023-04-07T21:03:22.821Z,61480.34
2023-04-07T21:08:25.679Z,61480.69
2023-04-07T21:13:29.267Z,61418.53
2023-04-07T21:18:33.249Z,61452.38
2023-04-07T21:23:35.872Z,61492.13
2023-04-07T21:28:40.060Z,61441.91
2023-04-07T21:33:43.920Z,61413.97
2023-04-07T21:38:46.615Z,61445.78
2023-04-07T21:43:49.385Z,61399.56
2023-04-07T21:48:54.396Z,61395.25
2023-04-07T21:53:58.111Z,61384.16
2023-04-07T21:59:01.512Z,61385.91
2023-04-07T22:04:05.514Z,61376.53
2023-04-07T22:09:08.506Z,61368.75
2023-04-07T22:14:11.049Z,61371.50
2023-04-07T22:19:15.089Z,61360.91
2023-04-07T22:24:17.598Z,61379.31
2023-04-07T22:29:20.211Z,61336.91
2023-04-07T22:34:24.146Z,61382.22
2023-04-07T22:39:27.339Z,61338.19
2023-04-07T22:44:30.020Z,61337.97
2023-04-07T22:49:34.040Z,61321.81
2023-04-07T22:54:36.562Z,61300.81
2023-04-07T22:59:39.160Z,61302.19
2023-04-07T23:04:43.119Z,61311.59
2023-04-07T23:09:46.310Z,61297.22
2023-04-07T23:14:49.228Z,61333.06
2023-04-07T23:19:53.286Z,61309.00
2023-04-07T23:24:56.875Z,61298.91
2023-04-07T23:29:59.289Z,61281.22
2023-04-07T23:35:03.321Z,61266.66
2023-04-07T23:40:07.250Z,61248.00
2023-04-07T23:45:10.524Z,61276.34
2023-04-07T23:50:14.687Z,61288.19
2023-04-07T23:55:17.375Z,61262.63
